sensor_id;sensor_type;location;lat;lon;timestamp;pressure;altitude;pressure_sealevel;temperature;humidity
6038;BME280;3047;42.600;23.470;2023-05-24T00:01:14;92876.16;;;14.65;100.00
6038;BME280;3047;42.600;23.470;2023-05-24T00:03:49;92873.72;;;14.64;100.00
6038;BME280;3047;42.600;23.470;2023-05-24T00:06:16;92872.22;;;14.59;100.00
6038;BME280;3047;42.600;23.470;2023-05-24T00:08:43;92871.41;;;14.59;100.00
6038;BME280;3047;42.600;23.470;2023-05-24T00:11:10;92881.66;;;14.75;100.00
6038;BME280;3047;42.600;23.470;2023-05-24T00:13:36;92873.88;;;14.78;100.00
6038;BME280;3047;42.600;23.470;2023-05-24T00:16:05;92880.16;;;14.88;100.00
6038;BME280;3047;42.600;23.470;2023-05-24T00:18:31;92871.94;;;14.83;100.00
6038;BME280;3047;42.600;23.470;2023-05-24T00:20:59;92874.53;;;14.81;100.00
6038;BME280;3047;42.600;23.470;2023-05-24T00:23:25;92869.09;;;14.72;100.00
6038;BME280;3047;42.600;23.470;2023-05-24T00:25:52;92881.56;;;14.59;100.00
6038;BME280;3047;42.600;23.470;2023-05-24T00:28:19;92880.00;;;14.74;100.00
6038;BME280;3047;42.600;23.470;2023-05-24T00:30:45;92885.31;;;14.69;100.00
6038;BME280;3047;42.600;23.470;2023-05-24T00:33:13;92884.34;;;14.72;100.00
6038;BME280;3047;42.600;23.470;2023-05-24T00:35:40;92876.41;;;14.61;100.00
6038;BME280;3047;42.600;23.470;2023-05-24T00:38:07;92879.53;;;14.66;100.00
6038;BME280;3047;42.600;23.470;2023-05-24T00:40:33;92870.03;;;14.69;100.00
6038;BME280;3047;42.600;23.470;2023-05-24T00:43:00;92868.41;;;14.68;100.00
6038;BME280;3047;42.600;23.470;2023-05-24T00:45:27;92868.03;;;14.58;100.00
6038;BME280;3047;42.600;23.470;2023-05-24T00:47:53;92877.56;;;14.53;100.00
6038;BME280;3047;42.600;23.470;2023-05-24T00:50:22;92866.16;;;14.43;100.00
6038;BME280;3047;42.600;23.470;2023-05-24T00:52:50;92879.09;;;14.39;100.00
6038;BME280;3047;42.600;23.470;2023-05-24T00:55:17;92878.41;;;14.35;100.00
6038;BME280;3047;42.600;23.470;2023-05-24T00:57:44;92877.13;;;14.26;100.00
6038;BME280;3047;42.600;23.470;2023-05-24T01:00:11;92875.66;;;14.21;100.00
6038;BME280;3047;42.600;23.470;2023-05-24T01:02:38;92871.91;;;14.10;100.00
6038;BME280;3047;42.600;23.470;2023-05-24T01:05:06;92866.16;;;14.07;100.00
6038;BME280;3047;42.600;23.470;2023-05-24T01:07:40;92865.59;;;14.00;100.00
6038;BME280;3047;42.600;23.470;2023-05-24T01:10:17;92856.88;;;13.87;100.00
6038;BME280;3047;42.600;23.470;2023-05-24T01:12:58;92868.53;;;13.72;100.00
6038;BME280;3047;42.600;23.470;2023-05-24T01:15:32;92864.09;;;13.77;100.00
6038;BME280;3047;42.600;23.470;2023-05-24T01:18:11;92868.06;;;13.83;100.00
6038;BME280;3047;42.600;23.470;2023-05-24T01:20:40;92848.97;;;13.55;100.00
6038;BME280;3047;42.600;23.470;2023-05-24T01:23:30;92875.44;;;13.69;100.00
6038;BME280;3047;42.600;23.470;2023-05-24T01:26:17;92871.34;;;13.66;100.00
6038;BME280;3047;42.600;23.470;2023-05-24T01:28:48;92870.81;;;13.78;100.00
6038;BME280;3047;42.600;23.470;2023-05-24T01:31:16;92875.75;;;13.81;100.00
6038;BME280;3047;42.600;23.470;2023-05-24T01:33:44;92884.31;;;13.79;100.00
6038;BME280;3047;42.600;23.470;2023-05-24T01:36:11;92881.09;;;13.75;100.00
6038;BME280;3047;42.600;23.470;2023-05-24T01:38:38;92888.78;;;13.74;100.00
6038;BME280;3047;42.600;23.470;2023-05-24T01:41:13;92889.13;;;13.66;100.00
6038;BME280;3047;42.600;23.470;2023-05-24T01:43:50;92892.53;;;13.65;100.00
6038;BME280;3047;42.600;23.470;2023-05-24T01:46:21;92897.75;;;13.62;100.00
6038;BME280;3047;42.600;23.470;2023-05-24T01:48:56;92896.09;;;13.61;100.00
6038;BME280;3047;42.600;23.470;2023-05-24T01:51:31;92890.03;;;13.24;100.00
6038;BME280;3047;42.600;23.470;2023-05-24T01:54:03;92892.25;;;13.32;100.00
6038;BME280;3047;42.600;23.470;2023-05-24T01:56:30;92888.56;;;13.39;100.00
6038;BME280;3047;42.600;23.470;2023-05-24T01:58:59;92882.66;;;13.18;100.00
6038;BME280;3047;42.600;23.470;2023-05-24T02:01:28;92863.09;;;13.01;100.00
6038;BME280;3047;42.600;23.470;2023-05-24T02:03:56;92876.00;;;13.16;100.00
6038;BME280;3047;42.600;23.470;2023-05-24T02:06:23;92876.00;;;13.16;100.00
6038;BME280;3047;42.600;23.470;2023-05-24T02:08:49;92864.59;;;13.05;100.00
6038;BME280;3047;42.600;23.470;2023-05-24T02:11:16;92872.22;;;13.05;100.00
6038;BME280;3047;42.600;23.470;2023-05-24T02:13:43;92863.81;;;13.03;100.00
6038;BME280;3047;42.600;23.470;2023-05-24T02:16:11;92867.75;;;13.10;100.00
6038;BME280;3047;42.600;23.470;2023-05-24T02:18:38;92870.41;;;13.07;100.00
6038;BME280;3047;42.600;23.470;2023-05-24T02:21:04;92863.72;;;13.06;100.00
6038;BME280;3047;42.600;23.470;2023-05-24T02:23:32;92861.59;;;12.96;100.00
6038;BME280;3047;42.600;23.470;2023-05-24T02:25:58;92817.13;;;12.68;100.00
6038;BME280;3047;42.600;23.470;2023-05-24T02:28:25;92866.38;;;13.03;100.00
6038;BME280;3047;42.600;23.470;2023-05-24T02:30:54;92869.41;;;13.11;100.00
6038;BME280;3047;42.600;23.470;2023-05-24T02:33:22;92857.53;;;13.12;100.00
6038;BME280;3047;42.600;23.470;2023-05-24T02:35:49;92857.75;;;13.07;100.00
6038;BME280;3047;42.600;23.470;2023-05-24T02:38:16;92864.13;;;13.16;100.00
6038;BME280;3047;42.600;23.470;2023-05-24T02:40:43;92864.91;;;13.18;100.00
6038;BME280;3047;42.600;23.470;2023-05-24T02:43:09;92869.91;;;13.20;100.00
6038;BME280;3047;42.600;23.470;2023-05-24T02:45:36;92869.88;;;13.21;100.00
6038;BME280;3047;42.600;23.470;2023-05-24T02:48:03;92871.63;;;13.19;100.00
6038;BME280;3047;42.600;23.470;2023-05-24T02:50:31;92869.16;;;13.18;100.00
6038;BME280;3047;42.600;23.470;2023-05-24T02:52:58;92866.63;;;13.18;100.00
6038;BME280;3047;42.600;23.470;2023-05-24T02:55:24;92870.22;;;13.12;100.00
6038;BME280;3047;42.600;23.470;2023-05-24T02:57:53;92872.03;;;13.10;100.00
6038;BME280;3047;42.600;23.470;2023-05-24T03:00:20;92866.63;;;12.97;100.00
6038;BME280;3047;42.600;23.470;2023-05-24T03:02:47;92862.38;;;12.98;100.00
6038;BME280;3047;42.600;23.470;2023-05-24T03:05:15;92865.53;;;12.82;100.00
6038;BME280;3047;42.600;23.470;2023-05-24T03:07:43;92862.88;;;12.65;100.00
6038;BME280;3047;42.600;23.470;2023-05-24T03:10:10;92867.88;;;12.87;100.00
6038;BME280;3047;42.600;23.470;2023-05-24T03:12:36;92859.22;;;12.72;100.00
6038;BME280;3047;42.600;23.470;2023-05-24T03:15:04;92839.25;;;12.65;100.00
6038;BME280;3047;42.600;23.470;2023-05-24T03:17:31;92863.69;;;12.86;100.00
6038;BME280;3047;42.600;23.470;2023-05-24T03:19:57;92871.63;;;12.99;100.00
6038;BME280;3047;42.600;23.470;2023-05-24T03:22:24;92872.09;;;13.08;100.00
6038;BME280;3047;42.600;23.470;2023-05-24T03:24:52;92882.66;;;13.18;100.00
6038;BME280;3047;42.600;23.470;2023-05-24T03:27:19;92890.09;;;13.23;100.00
6038;BME280;3047;42.600;23.470;2023-05-24T03:29:45;92888.28;;;13.26;100.00
6038;BME280;3047;42.600;23.470;2023-05-24T03:32:12;92893.47;;;13.23;100.00
6038;BME280;3047;42.600;23.470;2023-05-24T03:34:39;92888.44;;;13.22;100.00
6038;BME280;3047;42.600;23.470;2023-05-24T03:37:05;92890.81;;;13.26;100.00
6038;BME280;3047;42.600;23.470;2023-05-24T03:39:32;92896.50;;;13.31;100.00
6038;BME280;3047;42.600;23.470;2023-05-24T03:42:00;92896.06;;;13.42;100.00
6038;BME280;3047;42.600;23.470;2023-05-24T03:44:27;92900.25;;;13.43;100.00
6038;BME280;3047;42.600;23.470;2023-05-24T03:46:53;92900.03;;;13.48;100.00
6038;BME280;3047;42.600;23.470;2023-05-24T03:49:20;92891.50;;;13.50;100.00
6038;BME280;3047;42.600;23.470;2023-05-24T03:51:47;92899.31;;;13.46;100.00
6038;BME280;3047;42.600;23.470;2023-05-24T03:54:13;92895.59;;;13.53;100.00
6038;BME280;3047;42.600;23.470;2023-05-24T03:56:42;92896.16;;;13.59;100.00
6038;BME280;3047;42.600;23.470;2023-05-24T03:59:10;92886.78;;;13.62;100.00
6038;BME280;3047;42.600;23.470;2023-05-24T04:01:37;92902.75;;;13.64;100.00
6038;BME280;3047;42.600;23.470;2023-05-24T04:04:04;92855.53;;;13.41;100.00
6038;BME280;3047;42.600;23.470;2023-05-24T04:06:30;92911.31;;;13.81;100.00
6038;BME280;3047;42.600;23.470;2023-05-24T04:08:58;92901.81;;;13.85;100.00
6038;BME280;3047;42.600;23.470;2023-05-24T04:11:25;92907.38;;;13.93;100.00
6038;BME280;3047;42.600;23.470;2023-05-24T04:13:52;92903.16;;;13.94;100.00
6038;BME280;3047;42.600;23.470;2023-05-24T04:16:21;92907.84;;;14.01;100.00
6038;BME280;3047;42.600;23.470;2023-05-24T04:18:50;92874.31;;;13.95;100.00
6038;BME280;3047;42.600;23.470;2023-05-24T04:21:17;92902.06;;;14.18;100.00
6038;BME280;3047;42.600;23.470;2023-05-24T04:23:44;92909.25;;;14.27;100.00
6038;BME280;3047;42.600;23.470;2023-05-24T04:26:11;92905.38;;;14.38;100.00
6038;BME280;3047;42.600;23.470;2023-05-24T04:28:38;92909.41;;;14.42;100.00
6038;BME280;3047;42.600;23.470;2023-05-24T04:31:05;92909.06;;;14.51;100.00
6038;BME280;3047;42.600;23.470;2023-05-24T04:33:35;92912.13;;;14.57;100.00
6038;BME280;3047;42.600;23.470;2023-05-24T04:36:04;92915.88;;;14.68;100.00
6038;BME280;3047;42.600;23.470;2023-05-24T04:38:30;92915.53;;;14.75;100.00
6038;BME280;3047;42.600;23.470;2023-05-24T04:40:58;92908.25;;;14.68;100.00
6038;BME280;3047;42.600;23.470;2023-05-24T04:43:25;92919.56;;;14.79;100.00
6038;BME280;3047;42.600;23.470;2023-05-24T04:45:52;92929.31;;;14.89;100.00
6038;BME280;3047;42.600;23.470;2023-05-24T04:48:20;92926.41;;;14.96;100.00
6038;BME280;3047;42.600;23.470;2023-05-24T04:50:50;92934.63;;;15.01;100.00
6038;BME280;3047;42.600;23.470;2023-05-24T04:53:16;92941.28;;;15.04;100.00
6038;BME280;3047;42.600;23.470;2023-05-24T04:55:43;92932.75;;;15.05;100.00
6038;BME280;3047;42.600;23.470;2023-05-24T04:58:10;92942.94;;;15.22;100.00
6038;BME280;3047;42.600;23.470;2023-05-24T05:00:37;92942.97;;;15.40;100.00
6038;BME280;3047;42.600;23.470;2023-05-24T05:03:04;92937.31;;;15.50;100.00
6038;BME280;3047;42.600;23.470;2023-05-24T05:05:31;92947.72;;;15.63;100.00
6038;BME280;3047;42.600;23.470;2023-05-24T05:07:59;92941.88;;;15.78;100.00
6038;BME280;3047;42.600;23.470;2023-05-24T05:10:25;92932.50;;;15.79;100.00
6038;BME280;3047;42.600;23.470;2023-05-24T05:12:52;92945.28;;;15.95;100.00
6038;BME280;3047;42.600;23.470;2023-05-24T05:15:21;92944.50;;;16.10;100.00
6038;BME280;3047;42.600;23.470;2023-05-24T05:17:48;92931.25;;;16.03;100.00
6038;BME280;3047;42.600;23.470;2023-05-24T05:20:14;92942.22;;;16.21;100.00
6038;BME280;3047;42.600;23.470;2023-05-24T05:22:44;92943.97;;;16.37;100.00
6038;BME280;3047;42.600;23.470;2023-05-24T05:25:13;92944.41;;;16.45;100.00
6038;BME280;3047;42.600;23.470;2023-05-24T05:27:39;92944.88;;;16.51;100.00
6038;BME280;3047;42.600;23.470;2023-05-24T05:30:07;92939.63;;;16.70;100.00
6038;BME280;3047;42.600;23.470;2023-05-24T05:32:35;92945.72;;;16.84;100.00
6038;BME280;3047;42.600;23.470;2023-05-24T05:35:01;92938.97;;;16.83;100.00
6038;BME280;3047;42.600;23.470;2023-05-24T05:37:28;92938.13;;;16.98;100.00
6038;BME280;3047;42.600;23.470;2023-05-24T05:39:57;92950.03;;;17.13;100.00
6038;BME280;3047;42.600;23.470;2023-05-24T05:42:25;92952.50;;;17.15;100.00
6038;BME280;3047;42.600;23.470;2023-05-24T05:44:52;92956.44;;;17.20;100.00
6038;BME280;3047;42.600;23.470;2023-05-24T05:47:18;92952.56;;;17.13;100.00
6038;BME280;3047;42.600;23.470;2023-05-24T05:49:45;92966.19;;;17.14;100.00
6038;BME280;3047;42.600;23.470;2023-05-24T05:52:12;92971.44;;;17.26;100.00
6038;BME280;3047;42.600;23.470;2023-05-24T05:54:38;92948.06;;;17.18;100.00
6038;BME280;3047;42.600;23.470;2023-05-24T05:57:05;92968.13;;;17.24;100.00
6038;BME280;3047;42.600;23.470;2023-05-24T05:59:36;92957.88;;;17.10;100.00
6038;BME280;3047;42.600;23.470;2023-05-24T06:02:03;92955.88;;;17.15;100.00
6038;BME280;3047;42.600;23.470;2023-05-24T06:04:30;92965.31;;;17.29;100.00
6038;BME280;3047;42.600;23.470;2023-05-24T06:06:56;92971.56;;;17.39;100.00
6038;BME280;3047;42.600;23.470;2023-05-24T06:09:23;92977.13;;;17.46;100.00
6038;BME280;3047;42.600;23.470;2023-05-24T06:11:50;92978.69;;;17.48;100.00
6038;BME280;3047;42.600;23.470;2023-05-24T06:14:17;92982.97;;;17.48;100.00
6038;BME280;3047;42.600;23.470;2023-05-24T06:16:46;92982.97;;;17.48;100.00
6038;BME280;3047;42.600;23.470;2023-05-24T06:19:12;92975.78;;;17.54;100.00
6038;BME280;3047;42.600;23.470;2023-05-24T06:21:40;92984.06;;;17.58;100.00
6038;BME280;3047;42.600;23.470;2023-05-24T06:24:12;92979.81;;;17.59;100.00
6038;BME280;3047;42.600;23.470;2023-05-24T06:26:39;92955.81;;;17.47;100.00
6038;BME280;3047;42.600;23.470;2023-05-24T06:29:05;92971.25;;;17.60;100.00
6038;BME280;3047;42.600;23.470;2023-05-24T06:31:32;92977.06;;;17.62;100.00
6038;BME280;3047;42.600;23.470;2023-05-24T06:34:01;92976.91;;;17.65;100.00
6038;BME280;3047;42.600;23.470;2023-05-24T06:36:27;92963.75;;;17.57;100.00
6038;BME280;3047;42.600;23.470;2023-05-24T06:38:54;92974.00;;;17.71;100.00
6038;BME280;3047;42.600;23.470;2023-05-24T06:41:21;92977.97;;;17.76;100.00
6038;BME280;3047;42.600;23.470;2023-05-24T06:43:48;92979.81;;;17.89;100.00
6038;BME280;3047;42.600;23.470;2023-05-24T06:46:14;92975.16;;;17.95;100.00
6038;BME280;3047;42.600;23.470;2023-05-24T06:48:41;92972.25;;;18.01;100.00
6038;BME280;3047;42.600;23.470;2023-05-24T06:51:09;92972.88;;;18.05;100.00
6038;BME280;3047;42.600;23.470;2023-05-24T06:53:36;92977.06;;;18.06;100.00
6038;BME280;3047;42.600;23.470;2023-05-24T06:56:02;92955.09;;;18.03;100.00
6038;BME280;3047;42.600;23.470;2023-05-24T06:58:29;92972.91;;;18.19;100.00
6038;BME280;3047;42.600;23.470;2023-05-24T07:00:56;92974.91;;;18.28;100.00
6038;BME280;3047;42.600;23.470;2023-05-24T07:03:23;92968.88;;;18.29;100.00
6038;BME280;3047;42.600;23.470;2023-05-24T07:05:49;92973.63;;;18.36;99.22
6038;BME280;3047;42.600;23.470;2023-05-24T07:08:18;92973.16;;;18.43;99.04
6038;BME280;3047;42.600;23.470;2023-05-24T07:10:44;92973.72;;;18.48;96.54
6038;BME280;3047;42.600;23.470;2023-05-24T07:13:11;92976.91;;;18.52;97.88
6038;BME280;3047;42.600;23.470;2023-05-24T07:15:39;92984.00;;;18.61;96.16
6038;BME280;3047;42.600;23.470;2023-05-24T07:18:06;92980.16;;;18.68;94.84
6038;BME280;3047;42.600;23.470;2023-05-24T07:20:33;92983.81;;;18.78;97.25
6038;BME280;3047;42.600;23.470;2023-05-24T07:23:00;92983.34;;;18.86;93.72
6038;BME280;3047;42.600;23.470;2023-05-24T07:25:29;92938.41;;;18.68;96.22
6038;BME280;3047;42.600;23.470;2023-05-24T07:27:57;92980.19;;;19.10;97.58
6038;BME280;3047;42.600;23.470;2023-05-24T07:30:23;92979.09;;;19.26;98.94
6038;BME280;3047;42.600;23.470;2023-05-24T07:32:50;92981.63;;;19.41;96.77
6038;BME280;3047;42.600;23.470;2023-05-24T07:35:17;92990.50;;;19.62;96.02
6038;BME280;3047;42.600;23.470;2023-05-24T07:37:44;92970.84;;;19.63;89.54
6038;BME280;3047;42.600;23.470;2023-05-24T07:40:11;92988.09;;;19.86;87.36
6038;BME280;3047;42.600;23.470;2023-05-24T07:42:39;93001.34;;;20.06;86.05
6038;BME280;3047;42.600;23.470;2023-05-24T07:45:07;92988.72;;;20.15;84.27
6038;BME280;3047;42.600;23.470;2023-05-24T07:47:34;92987.69;;;20.43;87.87
6038;BME280;3047;42.600;23.470;2023-05-24T07:50:01;92940.28;;;20.36;88.23
6038;BME280;3047;42.600;23.470;2023-05-24T07:52:28;92990.47;;;20.90;85.02
6038;BME280;3047;42.600;23.470;2023-05-24T07:54:55;92995.88;;;21.11;79.08
6038;BME280;3047;42.600;23.470;2023-05-24T07:57:22;92986.47;;;21.35;81.88
6038;BME280;3047;42.600;23.470;2023-05-24T07:59:50;92996.47;;;21.62;75.66
6038;BME280;3047;42.600;23.470;2023-05-24T08:02:17;92990.84;;;21.81;74.39
6038;BME280;3047;42.600;23.470;2023-05-24T08:04:43;92993.91;;;21.97;70.06
6038;BME280;3047;42.600;23.470;2023-05-24T08:07:11;92983.44;;;22.23;72.05
6038;BME280;3047;42.600;23.470;2023-05-24T08:09:38;92990.63;;;22.53;71.69
6038;BME280;3047;42.600;23.470;2023-05-24T08:12:06;92989.44;;;22.80;70.62
6038;BME280;3047;42.600;23.470;2023-05-24T08:14:33;92991.88;;;23.04;69.27
6038;BME280;3047;42.600;23.470;2023-05-24T08:17:01;92987.38;;;23.28;66.77
6038;BME280;3047;42.600;23.470;2023-05-24T08:19:27;92977.38;;;23.46;66.19
6038;BME280;3047;42.600;23.470;2023-05-24T08:21:59;92980.03;;;23.67;62.42
6038;BME280;3047;42.600;23.470;2023-05-24T08:24:29;92969.91;;;23.75;60.40
6038;BME280;3047;42.600;23.470;2023-05-24T08:26:56;92982.66;;;23.98;57.70
6038;BME280;3047;42.600;23.470;2023-05-24T08:29:23;92979.16;;;24.20;56.21
6038;BME280;3047;42.600;23.470;2023-05-24T08:31:50;92967.66;;;24.33;57.96
6038;BME280;3047;42.600;23.470;2023-05-24T08:34:18;92983.94;;;24.45;53.83
6038;BME280;3047;42.600;23.470;2023-05-24T08:36:45;92977.72;;;24.57;56.69
6038;BME280;3047;42.600;23.470;2023-05-24T08:39:12;92959.66;;;24.57;52.99
6038;BME280;3047;42.600;23.470;2023-05-24T08:41:39;92972.81;;;24.85;50.48
6038;BME280;3047;42.600;23.470;2023-05-24T08:44:06;92966.44;;;24.99;52.68
6038;BME280;3047;42.600;23.470;2023-05-24T08:46:33;92948.63;;;24.96;54.83
6038;BME280;3047;42.600;23.470;2023-05-24T08:49:00;92974.28;;;25.18;55.28
6038;BME280;3047;42.600;23.470;2023-05-24T08:51:29;92976.19;;;25.26;54.36
6038;BME280;3047;42.600;23.470;2023-05-24T08:53:57;92970.22;;;25.45;53.28
6038;BME280;3047;42.600;23.470;2023-05-24T08:56:25;92972.13;;;25.62;53.30
6038;BME280;3047;42.600;23.470;2023-05-24T08:58:53;92969.97;;;25.57;49.40
6038;BME280;3047;42.600;23.470;2023-05-24T09:01:20;92975.25;;;25.75;52.22
6038;BME280;3047;42.600;23.470;2023-05-24T09:03:50;92977.19;;;25.83;49.50
6038;BME280;3047;42.600;23.470;2023-05-24T09:06:17;92978.72;;;25.85;48.67
6038;BME280;3047;42.600;23.470;2023-05-24T09:08:46;92975.69;;;26.00;46.84
6038;BME280;3047;42.600;23.470;2023-05-24T09:11:17;92982.34;;;26.12;48.63
6038;BME280;3047;42.600;23.470;2023-05-24T09:13:44;92973.03;;;26.29;47.34
6038;BME280;3047;42.600;23.470;2023-05-24T09:16:11;92970.06;;;26.24;45.99
6038;BME280;3047;42.600;23.470;2023-05-24T09:18:39;92979.72;;;26.31;42.19
6038;BME280;3047;42.600;23.470;2023-05-24T09:21:06;92976.06;;;26.14;41.47
6038;BME280;3047;42.600;23.470;2023-05-24T09:23:34;92980.44;;;26.14;42.53
6038;BME280;3047;42.600;23.470;2023-05-24T09:26:07;92975.25;;;26.04;40.46
6038;BME280;3047;42.600;23.470;2023-05-24T09:28:35;92971.16;;;26.11;43.23
6038;BME280;3047;42.600;23.470;2023-05-24T09:31:02;92929.38;;;25.87;38.50
6038;BME280;3047;42.600;23.470;2023-05-24T09:33:29;92925.19;;;25.86;41.62
6038;BME280;3047;42.600;23.470;2023-05-24T09:35:58;92960.97;;;26.10;42.86
6038;BME280;3047;42.600;23.470;2023-05-24T09:38:25;92967.63;;;26.22;41.12
6038;BME280;3047;42.600;23.470;2023-05-24T09:41:00;92965.00;;;26.32;45.72
6038;BME280;3047;42.600;23.470;2023-05-24T09:43:29;92956.81;;;26.46;42.79
6038;BME280;3047;42.600;23.470;2023-05-24T09:45:57;92962.63;;;26.58;41.33
6038;BME280;3047;42.600;23.470;2023-05-24T09:48:25;92954.31;;;26.54;40.24
6038;BME280;3047;42.600;23.470;2023-05-24T09:51:05;92953.72;;;26.70;42.28
6038;BME280;3047;42.600;23.470;2023-05-24T09:53:34;92967.38;;;26.62;45.26
6038;BME280;3047;42.600;23.470;2023-05-24T09:56:02;92952.78;;;26.61;42.10
6038;BME280;3047;42.600;23.470;2023-05-24T09:58:31;92938.25;;;26.51;42.78
6038;BME280;3047;42.600;23.470;2023-05-24T10:01:05;92946.84;;;26.51;43.61
6038;BME280;3047;42.600;23.470;2023-05-24T10:03:33;92937.38;;;26.60;41.23
6038;BME280;3047;42.600;23.470;2023-05-24T10:06:00;92952.66;;;26.53;44.39
6038;BME280;3047;42.600;23.470;2023-05-24T10:08:29;92955.28;;;26.44;41.61
6038;BME280;3047;42.600;23.470;2023-05-24T10:10:56;92953.50;;;26.44;40.80
6038;BME280;3047;42.600;23.470;2023-05-24T10:13:23;92943.41;;;26.41;41.65
6038;BME280;3047;42.600;23.470;2023-05-24T10:15:53;92951.34;;;26.39;39.82
6038;BME280;3047;42.600;23.470;2023-05-24T10:18:20;92956.00;;;26.46;41.74
6038;BME280;3047;42.600;23.470;2023-05-24T10:20:47;92957.66;;;26.27;39.13
6038;BME280;3047;42.600;23.470;2023-05-24T10:23:19;92930.19;;;25.97;38.85
6038;BME280;3047;42.600;23.470;2023-05-24T10:25:50;92954.03;;;25.91;39.69
6038;BME280;3047;42.600;23.470;2023-05-24T10:28:18;92944.50;;;26.01;42.25
6038;BME280;3047;42.600;23.470;2023-05-24T10:30:53;92950.56;;;26.20;40.91
6038;BME280;3047;42.600;23.470;2023-05-24T10:33:25;92951.75;;;26.35;41.70
6038;BME280;3047;42.600;23.470;2023-05-24T10:35:53;92948.31;;;26.44;38.93
6038;BME280;3047;42.600;23.470;2023-05-24T10:38:21;92946.28;;;26.48;42.45
6038;BME280;3047;42.600;23.470;2023-05-24T10:40:48;92945.63;;;26.46;37.60
6038;BME280;3047;42.600;23.470;2023-05-24T10:43:16;92938.00;;;26.34;38.13
6038;BME280;3047;42.600;23.470;2023-05-24T10:45:47;92929.00;;;26.29;42.81
6038;BME280;3047;42.600;23.470;2023-05-24T10:48:35;92932.41;;;26.39;40.89
6038;BME280;3047;42.600;23.470;2023-05-24T10:51:30;92931.03;;;26.35;41.01
6038;BME280;3047;42.600;23.470;2023-05-24T10:54:10;92935.25;;;26.36;39.17
6038;BME280;3047;42.600;23.470;2023-05-24T10:56:39;92925.34;;;26.31;36.75
6038;BME280;3047;42.600;23.470;2023-05-24T10:59:07;92929.28;;;26.35;37.32
6038;BME280;3047;42.600;23.470;2023-05-24T11:01:34;92886.97;;;26.17;40.64
6038;BME280;3047;42.600;23.470;2023-05-24T11:04:10;92921.31;;;26.56;42.18
6038;BME280;3047;42.600;23.470;2023-05-24T11:06:47;92916.66;;;26.60;36.28
6038;BME280;3047;42.600;23.470;2023-05-24T11:09:15;92919.84;;;26.54;38.57
6038;BME280;3047;42.600;23.470;2023-05-24T11:11:46;92912.47;;;26.49;36.84
6038;BME280;3047;42.600;23.470;2023-05-24T11:14:17;92913.81;;;26.53;39.96
6038;BME280;3047;42.600;23.470;2023-05-24T11:16:45;92919.94;;;26.62;35.80
6038;BME280;3047;42.600;23.470;2023-05-24T11:19:18;92918.28;;;26.61;35.49
6038;BME280;3047;42.600;23.470;2023-05-24T11:21:46;92916.00;;;26.58;36.46
6038;BME280;3047;42.600;23.470;2023-05-24T11:24:13;92912.19;;;26.52;37.24
6038;BME280;3047;42.600;23.470;2023-05-24T11:26:40;92918.06;;;26.54;39.09
6038;BME280;3047;42.600;23.470;2023-05-24T11:29:06;92911.91;;;26.55;36.09
6038;BME280;3047;42.600;23.470;2023-05-24T11:31:33;92912.28;;;26.60;39.45
6038;BME280;3047;42.600;23.470;2023-05-24T11:34:04;92903.31;;;26.55;36.04
6038;BME280;3047;42.600;23.470;2023-05-24T11:36:33;92903.75;;;26.50;38.85
6038;BME280;3047;42.600;23.470;2023-05-24T11:39:00;92904.84;;;26.48;38.97
6038;BME280;3047;42.600;23.470;2023-05-24T11:41:34;92897.91;;;26.38;38.95
6038;BME280;3047;42.600;23.470;2023-05-24T11:44:01;92911.94;;;26.36;39.86
6038;BME280;3047;42.600;23.470;2023-05-24T11:46:28;92887.63;;;26.19;36.25
6038;BME280;3047;42.600;23.470;2023-05-24T11:48:56;92871.72;;;26.04;38.18
6038;BME280;3047;42.600;23.470;2023-05-24T11:51:27;92902.44;;;26.27;35.98
6038;BME280;3047;42.600;23.470;2023-05-24T11:53:56;92891.88;;;26.01;36.69
6038;BME280;3047;42.600;23.470;2023-05-24T11:56:23;92894.91;;;25.96;36.61
6038;BME280;3047;42.600;23.470;2023-05-24T11:58:55;92896.13;;;25.92;35.16
6038;BME280;3047;42.600;23.470;2023-05-24T12:01:25;92890.44;;;25.79;37.02
6038;BME280;3047;42.600;23.470;2023-05-24T12:03:53;92889.22;;;25.73;37.54
6038;BME280;3047;42.600;23.470;2023-05-24T12:06:20;92880.78;;;25.52;35.88
6038;BME280;3047;42.600;23.470;2023-05-24T12:08:48;92889.09;;;25.46;36.59
6038;BME280;3047;42.600;23.470;2023-05-24T12:11:16;92882.72;;;25.30;37.50
6038;BME280;3047;42.600;23.470;2023-05-24T12:13:43;92884.63;;;25.28;37.68
6038;BME280;3047;42.600;23.470;2023-05-24T12:16:10;92886.53;;;25.26;39.62
6038;BME280;3047;42.600;23.470;2023-05-24T12:18:38;92882.16;;;25.27;39.30
6038;BME280;3047;42.600;23.470;2023-05-24T12:21:08;92876.31;;;25.25;37.29
6038;BME280;3047;42.600;23.470;2023-05-24T12:23:35;92870.22;;;25.16;40.53
6038;BME280;3047;42.600;23.470;2023-05-24T12:26:04;92861.75;;;25.14;43.25
6038;BME280;3047;42.600;23.470;2023-05-24T12:28:36;92873.06;;;25.13;41.12
6038;BME280;3047;42.600;23.470;2023-05-24T12:31:04;92859.97;;;25.14;40.33
6038;BME280;3047;42.600;23.470;2023-05-24T12:33:32;92871.44;;;25.12;41.05
6038;BME280;3047;42.600;23.470;2023-05-24T12:35:59;92864.72;;;25.00;39.86
6038;BME280;3047;42.600;23.470;2023-05-24T12:38:26;92861.72;;;24.95;40.74
6038;BME280;3047;42.600;23.470;2023-05-24T12:40:53;92859.28;;;24.83;40.15
6038;BME280;3047;42.600;23.470;2023-05-24T12:43:20;92855.44;;;24.78;39.94
6038;BME280;3047;42.600;23.470;2023-05-24T12:45:48;92858.16;;;24.76;42.44
6038;BME280;3047;42.600;23.470;2023-05-24T12:48:15;92854.88;;;24.74;43.54
6038;BME280;3047;42.600;23.470;2023-05-24T12:50:41;92853.66;;;24.78;43.62
6038;BME280;3047;42.600;23.470;2023-05-24T12:53:08;92857.06;;;24.79;43.04
6038;BME280;3047;42.600;23.470;2023-05-24T12:55:36;92853.13;;;24.75;43.36
6038;BME280;3047;42.600;23.470;2023-05-24T12:58:02;92821.97;;;24.57;44.69
6038;BME280;3047;42.600;23.470;2023-05-24T13:00:32;92843.19;;;24.70;45.67
6038;BME280;3047;42.600;23.470;2023-05-24T13:03:00;92846.47;;;24.72;43.27
6038;BME280;3047;42.600;23.470;2023-05-24T13:05:27;92847.69;;;24.68;44.90
6038;BME280;3047;42.600;23.470;2023-05-24T13:07:55;92849.97;;;24.61;43.65
6038;BME280;3047;42.600;23.470;2023-05-24T13:10:22;92849.16;;;24.51;43.82